createdAt,value
2018-07-06T00:00:14.562Z,99.90
2018-07-06T00:02:54.338Z,99.90
2018-07-06T00:05:34.189Z,99.90
2018-07-06T00:08:13.917Z,99.90
2018-07-06T00:10:54.154Z,99.90
2018-07-06T00:13:34.037Z,99.90
2018-07-06T00:16:13.788Z,99.90
2018-07-06T00:18:53.665Z,99.90
2018-07-06T00:21:33.446Z,99.90
2018-07-06T00:24:13.317Z,99.90
2018-07-06T00:26:53.140Z,99.90
2018-07-06T00:29:33.844Z,99.90
2018-07-06T00:32:14.141Z,99.90
2018-07-06T00:34:53.877Z,99.90
2018-07-06T00:37:33.764Z,99.90
2018-07-06T00:40:14.018Z,99.90
2018-07-06T00:42:54.175Z,99.90
2018-07-06T00:45:34.329Z,99.90
2018-07-06T00:48:14.315Z,99.90
2018-07-06T00:50:54.861Z,99.90
2018-07-06T00:53:34.474Z,99.90
2018-07-06T00:56:14.477Z,99.90
2018-07-06T00:58:54.338Z,99.90
2018-07-06T01:01:34.304Z,99.90
2018-07-06T01:04:14.244Z,99.90
2018-07-06T01:12:07.175Z,99.90
2018-07-06T01:14:46.938Z,99.90
2018-07-06T01:17:26.861Z,99.90
2018-07-06T01:20:06.881Z,99.90
2018-07-06T01:22:46.880Z,99.90
2018-07-06T01:25:26.655Z,99.90
2018-07-06T01:28:06.314Z,99.90
2018-07-06T01:30:46.067Z,99.90
2018-07-06T01:33:25.956Z,99.90
2018-07-06T01:36:05.840Z,99.90
2018-07-06T01:38:45.809Z,99.90
2018-07-06T01:41:25.513Z,99.90
2018-07-06T01:44:05.146Z,99.90
2018-07-06T01:46:45.086Z,99.90
2018-07-06T01:49:25.036Z,99.90
2018-07-06T01:52:04.879Z,99.90
2018-07-06T01:54:44.590Z,99.90
2018-07-06T01:57:24.552Z,99.90
2018-07-06T02:00:04.910Z,99.90
2018-07-06T02:02:44.773Z,99.90
2018-07-06T02:07:58.280Z,99.90
2018-07-06T02:10:38.193Z,99.90
2018-07-06T02:13:17.889Z,99.90
2018-07-06T02:15:57.782Z,99.90
2018-07-06T02:18:37.668Z,99.90
2018-07-06T02:21:17.489Z,99.90
2018-07-06T02:23:57.286Z,99.90
2018-07-06T02:26:37.265Z,99.90
2018-07-06T02:31:51.093Z,99.90
2018-07-06T02:34:30.738Z,99.90
2018-07-06T02:37:10.687Z,99.90
2018-07-06T02:39:50.618Z,99.90
2018-07-06T02:42:30.460Z,99.90
2018-07-06T02:45:10.161Z,99.90
2018-07-06T02:50:23.916Z,99.90
2018-07-06T02:53:03.777Z,99.90
2018-07-06T02:58:17.430Z,99.90
2018-07-06T03:03:31.040Z,99.90
2018-07-06T03:06:10.915Z,99.90
2018-07-06T03:11:24.847Z,99.90
2018-07-06T03:14:04.780Z,99.90
2018-07-06T03:16:44.579Z,99.90
2018-07-06T03:19:24.441Z,99.90
2018-07-06T03:24:38.045Z,99.90
2018-07-06T03:27:17.868Z,99.90
2018-07-06T03:29:57.646Z,99.90
2018-07-06T03:32:37.329Z,99.90
2018-07-06T03:37:51.077Z,99.90
2018-07-06T03:40:30.971Z,99.90
2018-07-06T03:43:10.771Z,99.90
2018-07-06T03:45:50.682Z,99.90
2018-07-06T03:48:30.325Z,99.90
2018-07-06T03:51:10.583Z,99.90
2018-07-06T03:53:50.571Z,99.90
2018-07-06T03:56:30.482Z,99.90
2018-07-06T03:59:10.265Z,99.90
2018-07-06T04:01:50.205Z,99.90
2018-07-06T04:04:30.166Z,99.90
2018-07-06T04:07:09.989Z,99.90
2018-07-06T04:09:49.885Z,99.90
2018-07-06T04:12:29.821Z,99.90
2018-07-06T04:15:09.726Z,99.90
2018-07-06T04:17:49.610Z,99.90
2018-07-06T04:20:29.417Z,99.90
2018-07-06T04:23:09.250Z,99.90
2018-07-06T04:25:49.057Z,99.90
2018-07-06T04:28:28.931Z,99.90
2018-07-06T04:31:08.795Z,99.90
2018-07-06T04:33:48.521Z,99.90
2018-07-06T04:39:02.220Z,99.90
2018-07-06T04:41:42.056Z,99.90
2018-07-06T04:44:21.861Z,99.90
2018-07-06T04:47:01.632Z,99.90
2018-07-06T04:54:48.920Z,99.90
2018-07-06T04:57:28.480Z,99.90
2018-07-06T05:00:08.397Z,99.90
2018-07-06T05:02:48.848Z,99.90
2018-07-06T05:05:28.787Z,99.90
2018-07-06T05:10:43.329Z,99.90
2018-07-06T05:13:23.213Z,99.90
2018-07-06T05:18:37.308Z,99.90
2018-07-06T05:21:17.123Z,99.90
2018-07-06T05:26:31.478Z,99.90
2018-07-06T05:29:11.392Z,99.90
2018-07-06T05:31:51.465Z,99.90
2018-07-06T05:34:31.350Z,99.90
2018-07-06T05:39:44.980Z,99.90
2018-07-06T05:42:24.864Z,99.90
2018-07-06T05:47:38.726Z,99.90
2018-07-06T05:52:52.776Z,99.90
2018-07-06T05:58:06.390Z,99.90
2018-07-06T06:00:46.189Z,99.90
2018-07-06T06:05:59.725Z,99.70
2018-07-06T06:08:27.094Z,99.50
2018-07-06T06:13:24.216Z,99.70
2018-07-06T06:15:52.827Z,99.70
2018-07-06T06:18:22.065Z,99.70
2018-07-06T06:20:50.774Z,99.90
2018-07-06T06:23:19.339Z,99.80
2018-07-06T06:25:48.650Z,99.90
2018-07-06T06:28:17.442Z,99.90
2018-07-06T06:30:46.464Z,99.90
2018-07-06T06:33:15.119Z,99.90
2018-07-06T06:35:44.111Z,99.90
2018-07-06T06:38:13.173Z,99.90
2018-07-06T06:43:09.997Z,99.90
2018-07-06T06:45:38.681Z,99.90
2018-07-06T06:48:08.345Z,99.90
2018-07-06T06:50:37.059Z,99.90
2018-07-06T06:53:05.728Z,99.90
2018-07-06T06:58:04.100Z,99.90
2018-07-06T07:00:32.723Z,99.70
2018-07-06T07:03:01.401Z,99.70
2018-07-06T07:05:30.539Z,99.50
2018-07-06T07:07:59.128Z,99.30
2018-07-06T07:10:27.702Z,99.90
2018-07-06T07:12:56.285Z,99.60
2018-07-06T07:15:24.987Z,99.90
2018-07-06T07:17:53.697Z,99.90
2018-07-06T07:22:50.775Z,99.90
2018-07-06T07:27:48.343Z,99.90
2018-07-06T07:32:45.609Z,99.70
2018-07-06T07:37:43.378Z,99.90
2018-07-06T07:40:12.227Z,99.00
2018-07-06T07:42:41.075Z,98.60
2018-07-06T07:50:07.465Z,98.60
2018-07-06T07:52:48.043Z,98.70
2018-07-06T07:55:16.738Z,99.20
2018-07-06T07:57:45.954Z,98.10
2018-07-06T08:00:15.337Z,98.80
2018-07-06T08:02:44.637Z,99.00
2018-07-06T08:05:14.073Z,98.40
2018-07-06T08:07:43.534Z,98.30
2018-07-06T08:10:12.978Z,99.40
2018-07-06T08:12:41.676Z,98.90
2018-07-06T08:15:10.908Z,99.00
2018-07-06T08:20:08.649Z,98.00
2018-07-06T08:22:38.161Z,98.10
2018-07-06T08:25:06.967Z,97.70
2018-07-06T08:27:35.690Z,97.90
2018-07-06T08:30:04.498Z,98.10
2018-07-06T08:32:33.954Z,97.80
2018-07-06T08:35:14.074Z,98.40
2018-07-06T08:37:56.477Z,98.50
2018-07-06T08:40:26.941Z,98.90
2018-07-06T08:42:56.862Z,99.10
2018-07-06T08:45:25.738Z,99.10
2018-07-06T08:47:54.497Z,98.20
2018-07-06T08:50:23.176Z,96.40
2018-07-06T08:52:53.288Z,97.90
2018-07-06T08:55:22.121Z,97.40
2018-07-06T08:57:52.122Z,96.90
2018-07-06T09:00:20.858Z,96.80
2018-07-06T09:05:18.385Z,96.70
2018-07-06T09:07:46.982Z,97.20
2018-07-06T09:10:15.600Z,96.80
2018-07-06T09:15:12.421Z,96.20
2018-07-06T09:17:41.052Z,95.70
2018-07-06T09:22:38.065Z,97.20
2018-07-06T09:25:07.559Z,97.70
2018-07-06T09:27:36.195Z,97.50
2018-07-06T09:30:04.883Z,96.80
2018-07-06T09:32:33.499Z,96.40
2018-07-06T09:35:02.103Z,96.30
2018-07-06T09:37:30.978Z,95.80
2018-07-06T09:39:59.681Z,95.90
2018-07-06T09:42:28.333Z,96.40
2018-07-06T09:47:25.155Z,96.30
2018-07-06T09:49:53.917Z,95.30
2018-07-06T09:52:22.999Z,94.70
2018-07-06T09:54:51.553Z,93.60
2018-07-06T09:59:48.482Z,92.90
2018-07-06T10:02:17.553Z,92.40
2018-07-06T10:04:46.134Z,92.20
2018-07-06T10:07:14.828Z,92.00
2018-07-06T10:09:43.448Z,92.10
2018-07-06T10:12:11.998Z,92.00
2018-07-06T10:14:40.641Z,91.60
2018-07-06T10:22:06.654Z,93.20
2018-07-06T10:24:35.413Z,91.50
2018-07-06T10:27:04.114Z,91.90
2018-07-06T10:29:42.610Z,91.70
2018-07-06T10:32:24.273Z,91.70
2018-07-06T10:39:50.664Z,92.10
2018-07-06T10:44:47.560Z,92.10
2018-07-06T10:47:16.237Z,92.40
2018-07-06T10:49:45.743Z,92.30
2018-07-06T10:52:15.925Z,92.10
2018-07-06T10:57:13.438Z,91.80
2018-07-06T10:59:42.054Z,91.90
2018-07-06T11:02:10.640Z,91.80
2018-07-06T11:04:39.256Z,91.60
2018-07-06T11:09:36.145Z,92.10
2018-07-06T11:12:04.758Z,91.40
2018-07-06T11:14:33.977Z,91.80
2018-07-06T11:17:02.598Z,91.90
2018-07-06T11:21:59.431Z,91.70
2018-07-06T11:24:28.104Z,91.10
2018-07-06T11:26:56.692Z,91.60
2018-07-06T11:29:25.933Z,91.20
2018-07-06T11:31:54.568Z,91.20
2018-07-06T11:34:23.150Z,90.70
2018-07-06T11:36:51.735Z,91.60
2018-07-06T11:39:20.362Z,91.30
2018-07-06T11:44:17.528Z,91.60
2018-07-06T11:49:14.318Z,92.20
2018-07-06T11:51:42.925Z,91.90
2018-07-06T11:54:11.498Z,91.60
2018-07-06T11:56:40.141Z,90.40
2018-07-06T12:01:36.970Z,90.70
2018-07-06T12:04:05.699Z,90.70
2018-07-06T12:06:34.296Z,90.80
2018-07-06T12:09:02.921Z,90.70
2018-07-06T12:11:31.506Z,90.80
2018-07-06T12:14:00.122Z,91.20
2018-07-06T12:16:28.937Z,91.00
2018-07-06T12:18:57.512Z,91.00
2018-07-06T12:23:54.462Z,90.60
2018-07-06T12:26:23.404Z,90.50
2018-07-06T12:28:51.954Z,90.00
2018-07-06T12:33:49.716Z,90.10
2018-07-06T12:36:18.994Z,90.40
2018-07-06T12:38:47.685Z,90.60
2018-07-06T12:41:16.577Z,91.00
2018-07-06T12:43:45.151Z,91.70
2018-07-06T12:46:13.686Z,92.00
2018-07-06T12:48:42.361Z,92.40
2018-07-06T12:51:10.909Z,92.20
2018-07-06T12:53:39.487Z,91.80
2018-07-06T12:56:08.045Z,91.40
2018-07-06T12:58:36.910Z,90.70
2018-07-06T13:01:05.333Z,90.40
2018-07-06T13:03:33.949Z,89.60
2018-07-06T13:06:02.499Z,89.40
2018-07-06T13:08:31.153Z,89.70
2018-07-06T13:10:59.696Z,90.80
2018-07-06T13:13:28.270Z,90.60
2018-07-06T13:15:56.870Z,88.20
2018-07-06T13:18:25.539Z,88.40
2018-07-06T13:20:54.166Z,88.80
2018-07-06T13:23:22.773Z,88.30
2018-07-06T13:25:51.412Z,87.50
2018-07-06T13:28:21.118Z,86.60
2018-07-06T13:30:49.723Z,84.50
2018-07-06T13:33:19.589Z,85.10
2018-07-06T13:35:48.203Z,85.60
2018-07-06T13:38:16.803Z,86.30
2018-07-06T13:40:45.389Z,86.10
2018-07-06T13:43:13.980Z,86.40
2018-07-06T13:48:10.879Z,84.80
2018-07-06T13:50:39.499Z,82.10
2018-07-06T13:53:08.981Z,82.30
2018-07-06T13:55:37.553Z,83.10
2018-07-06T13:58:06.168Z,81.80
2018-07-06T14:00:34.898Z,78.00
2018-07-06T14:05:31.757Z,81.10
2018-07-06T14:10:30.229Z,82.90
2018-07-06T14:12:58.782Z,82.00
2018-07-06T14:15:27.383Z,83.80
2018-07-06T14:17:55.984Z,82.20
2018-07-06T14:20:24.653Z,82.50
2018-07-06T14:22:53.269Z,81.90
2018-07-06T14:25:22.021Z,82.70
2018-07-06T14:27:51.188Z,82.90
2018-07-06T14:32:49.070Z,81.40
2018-07-06T14:35:18.117Z,81.50
2018-07-06T14:37:46.701Z,79.80
2018-07-06T14:40:15.246Z,80.40
2018-07-06T14:42:43.852Z,78.90
2018-07-06T14:45:13.402Z,78.90
2018-07-06T14:47:42.788Z,79.20
2018-07-06T14:50:11.401Z,79.40
2018-07-06T14:52:40.129Z,79.10
2018-07-06T14:55:09.466Z,79.60
2018-07-06T14:57:38.220Z,80.10
2018-07-06T15:00:06.876Z,79.90
2018-07-06T15:02:35.560Z,80.90
2018-07-06T15:05:04.194Z,82.70
2018-07-06T15:07:32.857Z,79.30
2018-07-06T15:10:01.469Z,80.20
2018-07-06T15:12:30.104Z,80.30
2018-07-06T15:14:58.638Z,79.80
2018-07-06T15:17:27.262Z,80.70
2018-07-06T15:22:24.111Z,83.60
2018-07-06T15:27:20.933Z,81.80
2018-07-06T15:29:49.512Z,81.50
2018-07-06T15:32:18.130Z,81.30
2018-07-06T15:34:47.024Z,81.40
2018-07-06T15:37:15.601Z,82.60
2018-07-06T15:39:44.224Z,83.20
2018-07-06T15:42:12.841Z,82.70
2018-07-06T15:44:41.411Z,82.20
2018-07-06T15:47:10.028Z,80.10
2018-07-06T15:49:38.808Z,79.10
2018-07-06T15:52:08.155Z,78.40
2018-07-06T15:57:05.071Z,71.50
2018-07-06T15:59:33.670Z,68.90
2018-07-06T16:02:02.294Z,68.10
2018-07-06T16:09:27.517Z,65.80
2018-07-06T16:11:56.085Z,64.30
2018-07-06T16:14:24.689Z,65.40
2018-07-06T16:16:53.326Z,66.40
2018-07-06T16:19:22.001Z,65.40
2018-07-06T16:21:50.699Z,66.80
2018-07-06T16:24:19.313Z,66.80
2018-07-06T16:26:47.971Z,70.40
2018-07-06T16:29:16.549Z,73.50
2018-07-06T16:31:45.149Z,74.70
2018-07-06T16:34:13.753Z,74.30
2018-07-06T16:36:42.313Z,75.40
2018-07-06T16:39:10.937Z,75.20
2018-07-06T16:41:39.537Z,75.50
2018-07-06T16:44:08.182Z,73.00
2018-07-06T16:46:36.723Z,73.30
2018-07-06T16:49:05.330Z,73.40
2018-07-06T16:51:34.004Z,72.20
2018-07-06T16:54:02.558Z,72.70
2018-07-06T17:01:28.826Z,75.20
2018-07-06T17:06:25.586Z,75.80
2018-07-06T17:11:23.263Z,77.10
2018-07-06T17:16:20.139Z,78.40
2018-07-06T17:18:48.721Z,78.80
2018-07-06T17:23:45.970Z,79.70
2018-07-06T17:26:14.846Z,80.50
2018-07-06T17:28:43.421Z,81.10
2018-07-06T17:31:12.150Z,81.10
2018-07-06T17:33:41.013Z,81.30
2018-07-06T17:36:09.645Z,81.30
2018-07-06T17:38:38.205Z,82.20
2018-07-06T17:41:07.817Z,81.70
2018-07-06T17:43:37.885Z,82.50
2018-07-06T17:46:06.478Z,80.50
2018-07-06T17:48:35.071Z,80.40
2018-07-06T17:51:03.938Z,81.40
2018-07-06T17:53:32.575Z,80.60
2018-07-06T17:58:29.978Z,81.90
2018-07-06T18:00:58.677Z,81.60
2018-07-06T18:03:27.598Z,82.10
2018-07-06T18:05:56.265Z,81.40
2018-07-06T18:08:24.977Z,82.30
2018-07-06T18:10:53.535Z,82.20
2018-07-06T18:13:22.181Z,82.20
2018-07-06T18:18:19.257Z,82.00
2018-07-06T18:20:47.845Z,83.00
2018-07-06T18:23:16.618Z,83.00
2018-07-06T18:25:45.153Z,83.80
2018-07-06T18:28:13.984Z,84.90
2018-07-06T18:33:10.863Z,84.30
2018-07-06T18:35:39.541Z,85.30
2018-07-06T18:40:37.205Z,85.80
2018-07-06T18:43:05.953Z,86.70
2018-07-06T18:45:34.611Z,86.90
2018-07-06T18:48:04.133Z,87.30
2018-07-06T18:50:32.767Z,88.30
2018-07-06T18:53:02.294Z,88.30
2018-07-06T18:57:59.810Z,88.20
2018-07-06T19:00:28.462Z,88.80
2018-07-06T19:02:57.038Z,88.80
2018-07-06T19:07:54.237Z,90.30
2018-07-06T19:10:23.397Z,90.30
2018-07-06T19:12:51.990Z,90.70
2018-07-06T19:15:21.450Z,91.10
2018-07-06T19:17:50.074Z,91.30
2018-07-06T19:20:18.709Z,92.40
2018-07-06T19:22:47.406Z,92.80
2018-07-06T19:25:16.519Z,93.30
2018-07-06T19:27:45.106Z,94.40
2018-07-06T19:30:14.725Z,94.90
2018-07-06T19:32:44.764Z,95.50
2018-07-06T19:37:42.484Z,96.50
2018-07-06T19:40:11.378Z,96.90
2018-07-06T19:42:39.988Z,97.60
2018-07-06T19:45:09.726Z,97.70
2018-07-06T19:47:38.362Z,98.00
2018-07-06T19:50:07.174Z,98.50
2018-07-06T19:52:35.756Z,98.70
2018-07-06T19:55:04.446Z,99.00
2018-07-06T19:57:34.042Z,99.40
2018-07-06T20:00:02.636Z,99.70
2018-07-06T20:02:31.635Z,99.90
2018-07-06T20:05:00.209Z,99.90
2018-07-06T20:07:28.841Z,99.90
2018-07-06T20:09:57.449Z,99.90
2018-07-06T20:12:26.095Z,99.90
2018-07-06T20:14:55.697Z,99.90
2018-07-06T20:17:25.042Z,99.90
2018-07-06T20:19:53.573Z,99.90
2018-07-06T20:22:22.165Z,99.90
2018-07-06T20:24:51.597Z,99.90
2018-07-06T20:27:20.238Z,99.90
2018-07-06T20:29:49.662Z,99.90
2018-07-06T20:32:18.845Z,99.90
2018-07-06T20:34:47.945Z,99.90
2018-07-06T20:37:16.553Z,99.90
2018-07-06T20:42:13.366Z,99.90
2018-07-06T20:44:41.921Z,99.90
2018-07-06T20:47:10.497Z,99.90
2018-07-06T20:49:39.557Z,99.90
2018-07-06T20:52:08.128Z,99.90
2018-07-06T20:54:37.564Z,99.90
2018-07-06T20:59:34.566Z,99.90
2018-07-06T21:02:03.098Z,99.90
2018-07-06T21:04:31.654Z,99.90
2018-07-06T21:07:00.194Z,99.90
2018-07-06T21:11:57.040Z,99.90
2018-07-06T21:14:25.626Z,99.90
2018-07-06T21:19:22.638Z,99.90
2018-07-06T21:21:51.185Z,99.90
2018-07-06T21:29:17.071Z,99.90
2018-07-06T21:31:45.621Z,99.90
2018-07-06T21:36:42.467Z,99.90
2018-07-06T21:39:11.543Z,99.90
2018-07-06T21:41:40.129Z,99.90
2018-07-06T21:44:08.694Z,99.90
2018-07-06T21:46:37.208Z,99.90
2018-07-06T21:49:05.821Z,99.90
2018-07-06T21:54:02.658Z,99.90
2018-07-06T21:56:31.286Z,99.90
2018-07-06T21:59:00.473Z,99.90
2018-07-06T22:01:29.101Z,99.90
2018-07-06T22:03:57.649Z,99.90
2018-07-06T22:06:26.266Z,99.90
2018-07-06T22:08:54.850Z,99.90
2018-07-06T22:11:23.506Z,99.90
2018-07-06T22:13:52.164Z,99.90
2018-07-06T22:16:20.757Z,99.90
2018-07-06T22:21:17.604Z,99.90
2018-07-06T22:23:46.170Z,99.90
2018-07-06T22:26:14.791Z,99.90
2018-07-06T22:31:11.629Z,99.90
2018-07-06T22:33:40.478Z,99.90
2018-07-06T22:36:09.066Z,99.90
2018-07-06T22:38:37.642Z,99.90
2018-07-06T22:41:06.976Z,99.90
2018-07-06T22:43:35.558Z,99.90
2018-07-06T22:46:04.199Z,99.90
2018-07-06T22:48:33.205Z,99.90
2018-07-06T22:51:01.774Z,99.90
2018-07-06T22:53:30.369Z,99.90
2018-07-06T22:55:58.917Z,99.90
2018-07-06T22:58:27.563Z,99.90
2018-07-06T23:00:56.715Z,99.90
2018-07-06T23:05:53.570Z,99.90
2018-07-06T23:10:50.458Z,99.90
2018-07-06T23:13:19.038Z,99.90
2018-07-06T23:15:48.475Z,99.90
2018-07-06T23:18:17.084Z,99.90
2018-07-06T23:20:45.627Z,99.90
2018-07-06T23:23:15.082Z,99.90
2018-07-06T23:25:47.502Z,99.90
2018-07-06T23:28:16.213Z,99.90
2018-07-06T23:30:44.911Z,99.90
2018-07-06T23:33:13.598Z,99.90
2018-07-06T23:35:42.416Z,99.90
2018-07-06T23:40:39.877Z,99.90
2018-07-06T23:43:08.547Z,99.90
2018-07-06T23:45:37.089Z,99.90
2018-07-06T23:48:05.717Z,99.90
2018-07-06T23:50:34.334Z,99.90
2018-07-06T23:55:31.858Z,99.90
2018-07-06T23:58:00.492Z,99.90
